sensor_id;sensor_type;location;lat;lon;timestamp;P1;durP1;ratioP1;P2;durP2;ratioP2
49488;SDS011;35382;51.484;11.476;2023-08-30T00:01:55;4.85;;;2.92;;
49488;SDS011;35382;51.484;11.476;2023-08-30T00:04:20;4.57;;;2.20;;
49488;SDS011;35382;51.484;11.476;2023-08-30T00:06:45;5.57;;;2.55;;
49488;SDS011;35382;51.484;11.476;2023-08-30T00:09:11;4.32;;;2.03;;
49488;SDS011;35382;51.484;11.476;2023-08-30T00:11:36;4.93;;;2.33;;
49488;SDS011;35382;51.484;11.476;2023-08-30T00:14:02;2.85;;;2.00;;
49488;SDS011;35382;51.484;11.476;2023-08-30T00:16:29;3.97;;;2.17;;
49488;SDS011;35382;51.484;11.476;2023-08-30T00:18:54;6.55;;;2.55;;
49488;SDS011;35382;51.484;11.476;2023-08-30T00:21:19;5.25;;;2.17;;
49488;SDS011;35382;51.484;11.476;2023-08-30T00:23:45;3.78;;;2.17;;
49488;SDS011;35382;51.484;11.476;2023-08-30T00:26:10;3.13;;;1.92;;
49488;SDS011;35382;51.484;11.476;2023-08-30T00:28:36;4.88;;;2.50;;
49488;SDS011;35382;51.484;11.476;2023-08-30T00:31:01;3.65;;;2.10;;
49488;SDS011;35382;51.484;11.476;2023-08-30T00:33:26;4.65;;;2.40;;
49488;SDS011;35382;51.484;11.476;2023-08-30T00:35:58;5.90;;;2.15;;
49488;SDS011;35382;51.484;11.476;2023-08-30T00:38:26;4.15;;;1.90;;
49488;SDS011;35382;51.484;11.476;2023-08-30T00:40:52;4.32;;;2.20;;
49488;SDS011;35382;51.484;11.476;2023-08-30T00:43:18;5.50;;;2.22;;
49488;SDS011;35382;51.484;11.476;2023-08-30T00:45:44;5.18;;;2.08;;
49488;SDS011;35382;51.484;11.476;2023-08-30T00:48:10;4.80;;;2.58;;
49488;SDS011;35382;51.484;11.476;2023-08-30T00:50:36;4.28;;;2.45;;
49488;SDS011;35382;51.484;11.476;2023-08-30T00:53:03;4.63;;;2.45;;
49488;SDS011;35382;51.484;11.476;2023-08-30T00:55:32;4.28;;;2.42;;
49488;SDS011;35382;51.484;11.476;2023-08-30T00:58:00;8.43;;;2.70;;
49488;SDS011;35382;51.484;11.476;2023-08-30T01:00:26;5.25;;;2.50;;
49488;SDS011;35382;51.484;11.476;2023-08-30T01:02:52;3.97;;;2.20;;
49488;SDS011;35382;51.484;11.476;2023-08-30T01:05:17;5.65;;;2.70;;
49488;SDS011;35382;51.484;11.476;2023-08-30T01:07:43;4.45;;;2.33;;
49488;SDS011;35382;51.484;11.476;2023-08-30T01:10:08;5.82;;;2.65;;
49488;SDS011;35382;51.484;11.476;2023-08-30T01:12:37;5.75;;;2.40;;
49488;SDS011;35382;51.484;11.476;2023-08-30T01:15:12;5.28;;;2.40;;
49488;SDS011;35382;51.484;11.476;2023-08-30T01:17:43;4.85;;;2.47;;
49488;SDS011;35382;51.484;11.476;2023-08-30T01:20:09;3.42;;;2.40;;
49488;SDS011;35382;51.484;11.476;2023-08-30T01:22:43;3.75;;;2.28;;
49488;SDS011;35382;51.484;11.476;2023-08-30T01:28:02;4.35;;;2.50;;
49488;SDS011;35382;51.484;11.476;2023-08-30T01:30:30;5.32;;;2.42;;
49488;SDS011;35382;51.484;11.476;2023-08-30T01:33:00;4.28;;;2.40;;
49488;SDS011;35382;51.484;11.476;2023-08-30T01:35:26;6.28;;;3.20;;
49488;SDS011;35382;51.484;11.476;2023-08-30T01:37:52;4.35;;;2.75;;
49488;SDS011;35382;51.484;11.476;2023-08-30T01:40:17;5.13;;;3.17;;
49488;SDS011;35382;51.484;11.476;2023-08-30T01:42:47;4.85;;;3.50;;
49488;SDS011;35382;51.484;11.476;2023-08-30T01:45:13;5.18;;;3.30;;
49488;SDS011;35382;51.484;11.476;2023-08-30T01:47:40;5.20;;;3.23;;
49488;SDS011;35382;51.484;11.476;2023-08-30T01:50:07;7.05;;;2.80;;
49488;SDS011;35382;51.484;11.476;2023-08-30T01:52:34;4.28;;;2.80;;
49488;SDS011;35382;51.484;11.476;2023-08-30T01:55:00;4.70;;;3.10;;
49488;SDS011;35382;51.484;11.476;2023-08-30T01:57:30;4.47;;;2.75;;
49488;SDS011;35382;51.484;11.476;2023-08-30T01:59:55;5.50;;;2.67;;
49488;SDS011;35382;51.484;11.476;2023-08-30T02:02:21;5.50;;;2.80;;
49488;SDS011;35382;51.484;11.476;2023-08-30T02:04:46;5.90;;;3.25;;
49488;SDS011;35382;51.484;11.476;2023-08-30T02:07:13;5.57;;;3.08;;
49488;SDS011;35382;51.484;11.476;2023-08-30T02:09:58;5.85;;;3.53;;
49488;SDS011;35382;51.484;11.476;2023-08-30T02:12:30;4.97;;;3.22;;
49488;SDS011;35382;51.484;11.476;2023-08-30T02:14:59;8.05;;;3.30;;
49488;SDS011;35382;51.484;11.476;2023-08-30T02:17:27;5.40;;;3.08;;
49488;SDS011;35382;51.484;11.476;2023-08-30T02:19:54;6.32;;;3.10;;
49488;SDS011;35382;51.484;11.476;2023-08-30T02:22:20;5.30;;;3.22;;
49488;SDS011;35382;51.484;11.476;2023-08-30T02:24:45;6.30;;;3.22;;
49488;SDS011;35382;51.484;11.476;2023-08-30T02:27:11;6.80;;;3.63;;
49488;SDS011;35382;51.484;11.476;2023-08-30T02:29:36;5.28;;;3.20;;
49488;SDS011;35382;51.484;11.476;2023-08-30T02:32:01;7.57;;;3.50;;
49488;SDS011;35382;51.484;11.476;2023-08-30T02:34:27;6.47;;;3.22;;
49488;SDS011;35382;51.484;11.476;2023-08-30T02:36:52;5.93;;;3.33;;
49488;SDS011;35382;51.484;11.476;2023-08-30T02:39:18;5.82;;;3.80;;
49488;SDS011;35382;51.484;11.476;2023-08-30T02:41:43;9.32;;;4.65;;
49488;SDS011;35382;51.484;11.476;2023-08-30T02:44:10;8.93;;;6.22;;
49488;SDS011;35382;51.484;11.476;2023-08-30T02:49:01;6.47;;;4.93;;
49488;SDS011;35382;51.484;11.476;2023-08-30T02:51:28;6.63;;;4.75;;
49488;SDS011;35382;51.484;11.476;2023-08-30T02:53:53;10.45;;;4.50;;
49488;SDS011;35382;51.484;11.476;2023-08-30T02:56:19;8.63;;;4.30;;
49488;SDS011;35382;51.484;11.476;2023-08-30T02:58:44;15.90;;;4.82;;
49488;SDS011;35382;51.484;11.476;2023-08-30T03:01:10;5.93;;;3.58;;
49488;SDS011;35382;51.484;11.476;2023-08-30T03:03:35;7.35;;;3.90;;
49488;SDS011;35382;51.484;11.476;2023-08-30T03:06:01;6.28;;;4.18;;
49488;SDS011;35382;51.484;11.476;2023-08-30T03:08:27;5.60;;;4.68;;
49488;SDS011;35382;51.484;11.476;2023-08-30T03:10:53;6.07;;;4.50;;
49488;SDS011;35382;51.484;11.476;2023-08-30T03:13:18;5.97;;;4.65;;
49488;SDS011;35382;51.484;11.476;2023-08-30T03:15:44;7.65;;;4.60;;
49488;SDS011;35382;51.484;11.476;2023-08-30T03:18:09;8.48;;;5.10;;
49488;SDS011;35382;51.484;11.476;2023-08-30T03:20:37;7.10;;;4.60;;
49488;SDS011;35382;51.484;11.476;2023-08-30T03:23:02;7.07;;;4.20;;
49488;SDS011;35382;51.484;11.476;2023-08-30T03:25:31;6.68;;;4.60;;
49488;SDS011;35382;51.484;11.476;2023-08-30T03:27:56;5.50;;;4.30;;
49488;SDS011;35382;51.484;11.476;2023-08-30T03:30:22;6.23;;;4.30;;
49488;SDS011;35382;51.484;11.476;2023-08-30T03:32:48;7.85;;;4.55;;
49488;SDS011;35382;51.484;11.476;2023-08-30T03:35:15;7.90;;;4.93;;
49488;SDS011;35382;51.484;11.476;2023-08-30T03:37:40;6.65;;;4.85;;
49488;SDS011;35382;51.484;11.476;2023-08-30T03:40:06;8.15;;;5.15;;
49488;SDS011;35382;51.484;11.476;2023-08-30T03:42:31;6.63;;;4.47;;
49488;SDS011;35382;51.484;11.476;2023-08-30T03:44:57;6.90;;;4.22;;
49488;SDS011;35382;51.484;11.476;2023-08-30T03:47:22;7.72;;;4.10;;
49488;SDS011;35382;51.484;11.476;2023-08-30T03:49:49;7.35;;;4.78;;
49488;SDS011;35382;51.484;11.476;2023-08-30T03:52:14;7.68;;;4.68;;
49488;SDS011;35382;51.484;11.476;2023-08-30T03:54:40;7.95;;;4.97;;
49488;SDS011;35382;51.484;11.476;2023-08-30T03:57:05;9.32;;;5.65;;
49488;SDS011;35382;51.484;11.476;2023-08-30T03:59:31;13.32;;;7.90;;
49488;SDS011;35382;51.484;11.476;2023-08-30T04:01:57;12.32;;;7.45;;
49488;SDS011;35382;51.484;11.476;2023-08-30T04:04:22;12.40;;;7.93;;
49488;SDS011;35382;51.484;11.476;2023-08-30T04:06:47;25.50;;;7.78;;
49488;SDS011;35382;51.484;11.476;2023-08-30T04:11:40;17.70;;;7.37;;
49488;SDS011;35382;51.484;11.476;2023-08-30T04:14:05;11.57;;;8.48;;
49488;SDS011;35382;51.484;11.476;2023-08-30T04:16:31;13.30;;;9.32;;
49488;SDS011;35382;51.484;11.476;2023-08-30T04:18:56;13.35;;;9.25;;
49488;SDS011;35382;51.484;11.476;2023-08-30T04:21:22;13.60;;;9.60;;
49488;SDS011;35382;51.484;11.476;2023-08-30T04:23:47;10.15;;;7.70;;
49488;SDS011;35382;51.484;11.476;2023-08-30T04:26:13;14.73;;;7.80;;
49488;SDS011;35382;51.484;11.476;2023-08-30T04:28:40;13.73;;;8.07;;
49488;SDS011;35382;51.484;11.476;2023-08-30T04:31:06;17.05;;;8.82;;
49488;SDS011;35382;51.484;11.476;2023-08-30T04:33:31;11.00;;;8.15;;
49488;SDS011;35382;51.484;11.476;2023-08-30T04:35:57;24.33;;;8.68;;
49488;SDS011;35382;51.484;11.476;2023-08-30T04:38:22;12.20;;;7.35;;
49488;SDS011;35382;51.484;11.476;2023-08-30T04:40:47;12.82;;;7.28;;
49488;SDS011;35382;51.484;11.476;2023-08-30T04:43:14;23.40;;;8.50;;
49488;SDS011;35382;51.484;11.476;2023-08-30T04:45:40;20.05;;;8.85;;
49488;SDS011;35382;51.484;11.476;2023-08-30T04:48:06;11.77;;;8.00;;
49488;SDS011;35382;51.484;11.476;2023-08-30T04:50:32;10.38;;;7.13;;
49488;SDS011;35382;51.484;11.476;2023-08-30T04:52:59;11.93;;;6.90;;
49488;SDS011;35382;51.484;11.476;2023-08-30T04:55:24;11.02;;;5.15;;
49488;SDS011;35382;51.484;11.476;2023-08-30T04:57:50;11.70;;;5.15;;
49488;SDS011;35382;51.484;11.476;2023-08-30T05:00:17;8.65;;;4.80;;
49488;SDS011;35382;51.484;11.476;2023-08-30T05:02:43;7.57;;;4.80;;
49488;SDS011;35382;51.484;11.476;2023-08-30T05:05:09;10.50;;;4.75;;
49488;SDS011;35382;51.484;11.476;2023-08-30T05:07:35;9.77;;;5.30;;
49488;SDS011;35382;51.484;11.476;2023-08-30T05:10:02;20.73;;;5.55;;
49488;SDS011;35382;51.484;11.476;2023-08-30T05:12:28;9.13;;;4.93;;
49488;SDS011;35382;51.484;11.476;2023-08-30T05:14:56;9.20;;;4.55;;
49488;SDS011;35382;51.484;11.476;2023-08-30T05:17:23;23.88;;;5.30;;
49488;SDS011;35382;51.484;11.476;2023-08-30T05:19:49;7.65;;;4.43;;
49488;SDS011;35382;51.484;11.476;2023-08-30T05:22:14;5.95;;;4.32;;
49488;SDS011;35382;51.484;11.476;2023-08-30T05:24:40;6.35;;;5.10;;
49488;SDS011;35382;51.484;11.476;2023-08-30T05:27:05;7.13;;;5.30;;
49488;SDS011;35382;51.484;11.476;2023-08-30T05:29:37;10.45;;;7.10;;
49488;SDS011;35382;51.484;11.476;2023-08-30T05:32:03;10.55;;;8.18;;
49488;SDS011;35382;51.484;11.476;2023-08-30T05:34:55;12.02;;;8.98;;
49488;SDS011;35382;51.484;11.476;2023-08-30T05:37:36;13.43;;;9.55;;
49488;SDS011;35382;51.484;11.476;2023-08-30T05:40:34;11.43;;;9.57;;
49488;SDS011;35382;51.484;11.476;2023-08-30T05:43:01;10.40;;;9.30;;
49488;SDS011;35382;51.484;11.476;2023-08-30T05:45:27;12.88;;;9.05;;
49488;SDS011;35382;51.484;11.476;2023-08-30T05:47:52;12.60;;;9.77;;
49488;SDS011;35382;51.484;11.476;2023-08-30T05:50:17;11.80;;;8.85;;
49488;SDS011;35382;51.484;11.476;2023-08-30T05:52:43;9.77;;;8.68;;
49488;SDS011;35382;51.484;11.476;2023-08-30T05:55:08;11.98;;;8.70;;
49488;SDS011;35382;51.484;11.476;2023-08-30T05:57:34;10.23;;;7.72;;
49488;SDS011;35382;51.484;11.476;2023-08-30T06:00:00;9.30;;;7.63;;
49488;SDS011;35382;51.484;11.476;2023-08-30T06:02:39;9.38;;;7.55;;
49488;SDS011;35382;51.484;11.476;2023-08-30T06:05:04;10.82;;;7.78;;
49488;SDS011;35382;51.484;11.476;2023-08-30T06:07:30;8.80;;;7.10;;
49488;SDS011;35382;51.484;11.476;2023-08-30T06:09:55;8.30;;;7.05;;
49488;SDS011;35382;51.484;11.476;2023-08-30T06:12:21;7.75;;;6.53;;
49488;SDS011;35382;51.484;11.476;2023-08-30T06:14:46;7.60;;;6.30;;
49488;SDS011;35382;51.484;11.476;2023-08-30T06:17:12;8.18;;;7.10;;
49488;SDS011;35382;51.484;11.476;2023-08-30T06:19:37;7.63;;;6.75;;
49488;SDS011;35382;51.484;11.476;2023-08-30T06:22:03;9.43;;;7.15;;
49488;SDS011;35382;51.484;11.476;2023-08-30T06:24:30;8.77;;;6.85;;
49488;SDS011;35382;51.484;11.476;2023-08-30T06:26:55;9.75;;;7.53;;
49488;SDS011;35382;51.484;11.476;2023-08-30T06:29:21;14.85;;;7.47;;
49488;SDS011;35382;51.484;11.476;2023-08-30T06:31:46;8.63;;;6.63;;
49488;SDS011;35382;51.484;11.476;2023-08-30T06:34:12;8.48;;;7.18;;
49488;SDS011;35382;51.484;11.476;2023-08-30T06:36:37;8.85;;;6.93;;
49488;SDS011;35382;51.484;11.476;2023-08-30T06:39:02;9.63;;;6.35;;
49488;SDS011;35382;51.484;11.476;2023-08-30T06:41:28;9.15;;;7.00;;
49488;SDS011;35382;51.484;11.476;2023-08-30T06:43:53;9.75;;;7.57;;
49488;SDS011;35382;51.484;11.476;2023-08-30T06:46:24;9.52;;;7.00;;
49488;SDS011;35382;51.484;11.476;2023-08-30T06:48:52;10.00;;;7.50;;
49488;SDS011;35382;51.484;11.476;2023-08-30T06:51:17;11.77;;;8.15;;
49488;SDS011;35382;51.484;11.476;2023-08-30T06:53:45;10.75;;;7.57;;
49488;SDS011;35382;51.484;11.476;2023-08-30T06:56:11;9.47;;;7.33;;
49488;SDS011;35382;51.484;11.476;2023-08-30T06:58:41;10.52;;;7.78;;
49488;SDS011;35382;51.484;11.476;2023-08-30T07:01:09;8.90;;;7.30;;
49488;SDS011;35382;51.484;11.476;2023-08-30T07:03:34;8.18;;;7.05;;
49488;SDS011;35382;51.484;11.476;2023-08-30T07:05:59;9.25;;;6.75;;
49488;SDS011;35382;51.484;11.476;2023-08-30T07:08:25;8.15;;;6.93;;
49488;SDS011;35382;51.484;11.476;2023-08-30T07:10:51;9.02;;;7.45;;
49488;SDS011;35382;51.484;11.476;2023-08-30T07:13:17;9.50;;;7.30;;
49488;SDS011;35382;51.484;11.476;2023-08-30T07:15:42;8.95;;;6.97;;
49488;SDS011;35382;51.484;11.476;2023-08-30T07:18:08;8.57;;;7.68;;
49488;SDS011;35382;51.484;11.476;2023-08-30T07:20:34;10.90;;;7.00;;
49488;SDS011;35382;51.484;11.476;2023-08-30T07:23:00;9.02;;;7.75;;
49488;SDS011;35382;51.484;11.476;2023-08-30T07:25:26;11.10;;;8.32;;
49488;SDS011;35382;51.484;11.476;2023-08-30T07:27:51;9.35;;;7.63;;
49488;SDS011;35382;51.484;11.476;2023-08-30T07:30:17;7.95;;;6.88;;
49488;SDS011;35382;51.484;11.476;2023-08-30T07:32:43;8.77;;;6.53;;
49488;SDS011;35382;51.484;11.476;2023-08-30T07:35:08;9.65;;;6.03;;
49488;SDS011;35382;51.484;11.476;2023-08-30T07:37:34;9.48;;;6.32;;
49488;SDS011;35382;51.484;11.476;2023-08-30T07:40:02;7.20;;;5.72;;
49488;SDS011;35382;51.484;11.476;2023-08-30T07:42:27;8.63;;;6.38;;
49488;SDS011;35382;51.484;11.476;2023-08-30T07:44:54;7.15;;;5.93;;
49488;SDS011;35382;51.484;11.476;2023-08-30T07:47:19;7.03;;;5.72;;
49488;SDS011;35382;51.484;11.476;2023-08-30T07:49:45;9.07;;;6.00;;
49488;SDS011;35382;51.484;11.476;2023-08-30T07:52:10;6.00;;;4.43;;
49488;SDS011;35382;51.484;11.476;2023-08-30T07:54:36;6.63;;;4.43;;
49488;SDS011;35382;51.484;11.476;2023-08-30T07:57:04;7.47;;;4.78;;
49488;SDS011;35382;51.484;11.476;2023-08-30T07:59:38;5.78;;;3.90;;
49488;SDS011;35382;51.484;11.476;2023-08-30T08:02:05;7.40;;;4.50;;
49488;SDS011;35382;51.484;11.476;2023-08-30T08:04:31;7.00;;;4.60;;
49488;SDS011;35382;51.484;11.476;2023-08-30T08:06:59;6.03;;;5.10;;
49488;SDS011;35382;51.484;11.476;2023-08-30T08:09:25;6.53;;;4.80;;
49488;SDS011;35382;51.484;11.476;2023-08-30T08:11:50;7.10;;;4.82;;
49488;SDS011;35382;51.484;11.476;2023-08-30T08:14:16;5.83;;;4.77;;
49488;SDS011;35382;51.484;11.476;2023-08-30T08:16:41;6.10;;;4.10;;
49488;SDS011;35382;51.484;11.476;2023-08-30T08:19:07;5.33;;;3.90;;
49488;SDS011;35382;51.484;11.476;2023-08-30T08:21:34;6.50;;;4.18;;
49488;SDS011;35382;51.484;11.476;2023-08-30T08:24:00;10.43;;;5.27;;
49488;SDS011;35382;51.484;11.476;2023-08-30T08:26:29;8.02;;;4.40;;
49488;SDS011;35382;51.484;11.476;2023-08-30T08:28:55;7.00;;;4.50;;
49488;SDS011;35382;51.484;11.476;2023-08-30T08:31:21;6.50;;;4.82;;
49488;SDS011;35382;51.484;11.476;2023-08-30T08:33:49;6.60;;;5.30;;
49488;SDS011;35382;51.484;11.476;2023-08-30T08:36:16;6.57;;;5.07;;
49488;SDS011;35382;51.484;11.476;2023-08-30T08:38:43;6.95;;;4.78;;
49488;SDS011;35382;51.484;11.476;2023-08-30T08:41:10;6.78;;;5.00;;
49488;SDS011;35382;51.484;11.476;2023-08-30T08:43:37;6.35;;;5.10;;
49488;SDS011;35382;51.484;11.476;2023-08-30T08:46:04;6.65;;;5.05;;
49488;SDS011;35382;51.484;11.476;2023-08-30T08:48:33;6.93;;;5.15;;
49488;SDS011;35382;51.484;11.476;2023-08-30T08:51:04;6.38;;;5.00;;
49488;SDS011;35382;51.484;11.476;2023-08-30T08:53:30;6.70;;;5.20;;
49488;SDS011;35382;51.484;11.476;2023-08-30T08:55:56;7.18;;;5.00;;
49488;SDS011;35382;51.484;11.476;2023-08-30T08:58:23;6.47;;;5.15;;
49488;SDS011;35382;51.484;11.476;2023-08-30T09:00:49;6.97;;;5.35;;
49488;SDS011;35382;51.484;11.476;2023-08-30T09:03:15;8.18;;;5.85;;
49488;SDS011;35382;51.484;11.476;2023-08-30T09:05:41;7.38;;;5.07;;
49488;SDS011;35382;51.484;11.476;2023-08-30T09:08:07;6.78;;;5.47;;
49488;SDS011;35382;51.484;11.476;2023-08-30T09:10:35;7.28;;;4.85;;
49488;SDS011;35382;51.484;11.476;2023-08-30T09:13:00;8.07;;;5.23;;
49488;SDS011;35382;51.484;11.476;2023-08-30T09:15:32;7.87;;;4.83;;
49488;SDS011;35382;51.484;11.476;2023-08-30T09:17:58;6.47;;;4.72;;
49488;SDS011;35382;51.484;11.476;2023-08-30T09:20:24;8.02;;;4.80;;
49488;SDS011;35382;51.484;11.476;2023-08-30T09:22:51;5.70;;;3.97;;
49488;SDS011;35382;51.484;11.476;2023-08-30T09:25:24;5.13;;;4.10;;
49488;SDS011;35382;51.484;11.476;2023-08-30T09:28:02;6.53;;;4.45;;
49488;SDS011;35382;51.484;11.476;2023-08-30T09:30:27;5.78;;;4.25;;
49488;SDS011;35382;51.484;11.476;2023-08-30T09:32:53;6.57;;;5.07;;
49488;SDS011;35382;51.484;11.476;2023-08-30T09:35:18;5.60;;;3.63;;
49488;SDS011;35382;51.484;11.476;2023-08-30T09:37:47;4.80;;;3.40;;
49488;SDS011;35382;51.484;11.476;2023-08-30T09:40:18;5.50;;;3.90;;
49488;SDS011;35382;51.484;11.476;2023-08-30T09:42:43;4.95;;;3.17;;
49488;SDS011;35382;51.484;11.476;2023-08-30T09:45:34;4.85;;;3.38;;
49488;SDS011;35382;51.484;11.476;2023-08-30T09:48:01;7.18;;;3.00;;
49488;SDS011;35382;51.484;11.476;2023-08-30T09:50:26;6.03;;;2.90;;
49488;SDS011;35382;51.484;11.476;2023-08-30T09:52:53;4.15;;;2.40;;
49488;SDS011;35382;51.484;11.476;2023-08-30T09:55:19;3.93;;;2.10;;
49488;SDS011;35382;51.484;11.476;2023-08-30T09:57:46;3.90;;;1.85;;
49488;SDS011;35382;51.484;11.476;2023-08-30T10:02:43;4.20;;;2.55;;
49488;SDS011;35382;51.484;11.476;2023-08-30T10:05:08;4.25;;;2.30;;
49488;SDS011;35382;51.484;11.476;2023-08-30T10:07:36;3.53;;;2.17;;
49488;SDS011;35382;51.484;11.476;2023-08-30T10:10:03;3.85;;;2.15;;
49488;SDS011;35382;51.484;11.476;2023-08-30T10:12:31;4.22;;;1.95;;
49488;SDS011;35382;51.484;11.476;2023-08-30T10:14:59;4.65;;;2.10;;
49488;SDS011;35382;51.484;11.476;2023-08-30T10:17:31;2.47;;;1.53;;
49488;SDS011;35382;51.484;11.476;2023-08-30T10:19:58;3.88;;;1.77;;
49488;SDS011;35382;51.484;11.476;2023-08-30T10:22:25;2.90;;;1.60;;
49488;SDS011;35382;51.484;11.476;2023-08-30T10:24:52;5.20;;;1.80;;
49488;SDS011;35382;51.484;11.476;2023-08-30T10:27:21;3.83;;;1.70;;
49488;SDS011;35382;51.484;11.476;2023-08-30T10:29:47;3.97;;;1.80;;
49488;SDS011;35382;51.484;11.476;2023-08-30T10:32:19;3.63;;;1.70;;
49488;SDS011;35382;51.484;11.476;2023-08-30T10:34:46;5.20;;;1.67;;
49488;SDS011;35382;51.484;11.476;2023-08-30T10:37:13;3.95;;;1.90;;
49488;SDS011;35382;51.484;11.476;2023-08-30T10:39:39;5.27;;;2.13;;
49488;SDS011;35382;51.484;11.476;2023-08-30T10:44:35;2.85;;;1.70;;
49488;SDS011;35382;51.484;11.476;2023-08-30T10:47:17;4.32;;;1.85;;
49488;SDS011;35382;51.484;11.476;2023-08-30T10:49:56;4.93;;;2.88;;
49488;SDS011;35382;51.484;11.476;2023-08-30T10:52:22;4.40;;;2.28;;
49488;SDS011;35382;51.484;11.476;2023-08-30T10:54:48;3.58;;;2.17;;
49488;SDS011;35382;51.484;11.476;2023-08-30T10:57:15;3.77;;;1.83;;
49488;SDS011;35382;51.484;11.476;2023-08-30T11:02:34;4.95;;;2.53;;
49488;SDS011;35382;51.484;11.476;2023-08-30T11:05:00;5.97;;;2.00;;
49488;SDS011;35382;51.484;11.476;2023-08-30T11:07:26;4.35;;;2.42;;
49488;SDS011;35382;51.484;11.476;2023-08-30T11:09:52;6.63;;;2.60;;
49488;SDS011;35382;51.484;11.476;2023-08-30T11:12:18;4.87;;;2.10;;
49488;SDS011;35382;51.484;11.476;2023-08-30T11:14:43;2.67;;;1.98;;
49488;SDS011;35382;51.484;11.476;2023-08-30T11:17:12;3.70;;;2.17;;
49488;SDS011;35382;51.484;11.476;2023-08-30T11:19:37;3.17;;;1.83;;
49488;SDS011;35382;51.484;11.476;2023-08-30T11:22:02;4.67;;;1.70;;
49488;SDS011;35382;51.484;11.476;2023-08-30T11:24:29;4.30;;;1.60;;
49488;SDS011;35382;51.484;11.476;2023-08-30T11:26:55;2.77;;;1.53;;
49488;SDS011;35382;51.484;11.476;2023-08-30T11:29:20;4.13;;;1.50;;
49488;SDS011;35382;51.484;11.476;2023-08-30T11:31:46;1.80;;;1.30;;
49488;SDS011;35382;51.484;11.476;2023-08-30T11:34:11;3.43;;;1.30;;
49488;SDS011;35382;51.484;11.476;2023-08-30T11:36:37;3.87;;;1.30;;
49488;SDS011;35382;51.484;11.476;2023-08-30T11:41:29;2.00;;;0.90;;
49488;SDS011;35382;51.484;11.476;2023-08-30T11:43:56;2.63;;;1.25;;
49488;SDS011;35382;51.484;11.476;2023-08-30T11:46:23;2.17;;;1.50;;
49488;SDS011;35382;51.484;11.476;2023-08-30T11:48:49;1.90;;;1.30;;
49488;SDS011;35382;51.484;11.476;2023-08-30T11:51:16;3.85;;;1.35;;
49488;SDS011;35382;51.484;11.476;2023-08-30T11:53:43;3.58;;;1.60;;
49488;SDS011;35382;51.484;11.476;2023-08-30T11:56:09;1.92;;;1.30;;
49488;SDS011;35382;51.484;11.476;2023-08-30T11:58:35;2.75;;;1.90;;
49488;SDS011;35382;51.484;11.476;2023-08-30T12:01:03;2.90;;;1.80;;
49488;SDS011;35382;51.484;11.476;2023-08-30T12:03:29;3.45;;;1.88;;
49488;SDS011;35382;51.484;11.476;2023-08-30T12:08:29;2.70;;;1.70;;
49488;SDS011;35382;51.484;11.476;2023-08-30T12:10:56;6.55;;;1.90;;
49488;SDS011;35382;51.484;11.476;2023-08-30T12:13:25;6.03;;;2.50;;
49488;SDS011;35382;51.484;11.476;2023-08-30T12:15:54;3.05;;;1.70;;
49488;SDS011;35382;51.484;11.476;2023-08-30T12:18:21;3.38;;;2.10;;
49488;SDS011;35382;51.484;11.476;2023-08-30T12:20:51;3.30;;;1.70;;
49488;SDS011;35382;51.484;11.476;2023-08-30T12:23:23;3.75;;;1.90;;
49488;SDS011;35382;51.484;11.476;2023-08-30T12:28:26;3.63;;;1.90;;
49488;SDS011;35382;51.484;11.476;2023-08-30T12:33:18;3.20;;;1.93;;
49488;SDS011;35382;51.484;11.476;2023-08-30T12:35:44;3.20;;;1.80;;
49488;SDS011;35382;51.484;11.476;2023-08-30T12:38:11;3.15;;;1.80;;
49488;SDS011;35382;51.484;11.476;2023-08-30T12:40:37;2.40;;;1.87;;
49488;SDS011;35382;51.484;11.476;2023-08-30T12:43:03;2.95;;;2.00;;
49488;SDS011;35382;51.484;11.476;2023-08-30T12:45:29;4.25;;;2.40;;
49488;SDS011;35382;51.484;11.476;2023-08-30T12:47:55;3.40;;;1.83;;
49488;SDS011;35382;51.484;11.476;2023-08-30T12:50:21;3.70;;;2.03;;
49488;SDS011;35382;51.484;11.476;2023-08-30T12:52:47;4.63;;;2.67;;
49488;SDS011;35382;51.484;11.476;2023-08-30T12:55:12;4.07;;;2.30;;
49488;SDS011;35382;51.484;11.476;2023-08-30T12:57:37;4.63;;;2.40;;
49488;SDS011;35382;51.484;11.476;2023-08-30T13:00:03;4.43;;;2.33;;
49488;SDS011;35382;51.484;11.476;2023-08-30T13:02:29;3.22;;;2.05;;
49488;SDS011;35382;51.484;11.476;2023-08-30T13:04:54;3.20;;;2.20;;
49488;SDS011;35382;51.484;11.476;2023-08-30T13:07:20;5.50;;;2.30;;
49488;SDS011;35382;51.484;11.476;2023-08-30T13:09:45;3.50;;;2.50;;
49488;SDS011;35382;51.484;11.476;2023-08-30T13:12:10;4.63;;;2.17;;
49488;SDS011;35382;51.484;11.476;2023-08-30T13:14:36;4.43;;;2.40;;
49488;SDS011;35382;51.484;11.476;2023-08-30T13:17:01;4.30;;;2.40;;
49488;SDS011;35382;51.484;11.476;2023-08-30T13:19:27;5.33;;;2.50;;
49488;SDS011;35382;51.484;11.476;2023-08-30T13:21:52;4.47;;;2.70;;
49488;SDS011;35382;51.484;11.476;2023-08-30T13:24:17;4.33;;;3.17;;
49488;SDS011;35382;51.484;11.476;2023-08-30T13:26:43;4.50;;;3.10;;
49488;SDS011;35382;51.484;11.476;2023-08-30T13:29:09;4.57;;;2.60;;
49488;SDS011;35382;51.484;11.476;2023-08-30T13:31:34;4.93;;;2.90;;
49488;SDS011;35382;51.484;11.476;2023-08-30T13:33:59;5.80;;;2.83;;
49488;SDS011;35382;51.484;11.476;2023-08-30T13:36:25;3.87;;;2.60;;
49488;SDS011;35382;51.484;11.476;2023-08-30T13:38:50;4.67;;;2.90;;
49488;SDS011;35382;51.484;11.476;2023-08-30T13:41:15;4.13;;;2.90;;
49488;SDS011;35382;51.484;11.476;2023-08-30T13:43:41;3.70;;;2.70;;
49488;SDS011;35382;51.484;11.476;2023-08-30T13:46:06;5.57;;;3.00;;
49488;SDS011;35382;51.484;11.476;2023-08-30T13:48:32;3.90;;;2.83;;
49488;SDS011;35382;51.484;11.476;2023-08-30T13:50:57;4.47;;;2.93;;
49488;SDS011;35382;51.484;11.476;2023-08-30T13:53:22;6.50;;;3.10;;
49488;SDS011;35382;51.484;11.476;2023-08-30T13:55:50;3.33;;;2.35;;
49488;SDS011;35382;51.484;11.476;2023-08-30T13:58:15;5.60;;;2.77;;
49488;SDS011;35382;51.484;11.476;2023-08-30T14:00:41;4.87;;;2.60;;
49488;SDS011;35382;51.484;11.476;2023-08-30T14:03:06;5.07;;;2.83;;
49488;SDS011;35382;51.484;11.476;2023-08-30T14:05:32;4.70;;;2.50;;
49488;SDS011;35382;51.484;11.476;2023-08-30T14:07:57;4.47;;;2.50;;
49488;SDS011;35382;51.484;11.476;2023-08-30T14:10:22;3.57;;;2.50;;
49488;SDS011;35382;51.484;11.476;2023-08-30T14:12:48;3.27;;;2.37;;
49488;SDS011;35382;51.484;11.476;2023-08-30T14:15:13;4.30;;;2.67;;
49488;SDS011;35382;51.484;11.476;2023-08-30T14:17:39;4.53;;;2.87;;
49488;SDS011;35382;51.484;11.476;2023-08-30T14:20:04;4.47;;;2.47;;
49488;SDS011;35382;51.484;11.476;2023-08-30T14:22:30;3.83;;;2.38;;
49488;SDS011;35382;51.484;11.476;2023-08-30T14:27:22;3.60;;;2.53;;
49488;SDS011;35382;51.484;11.476;2023-08-30T14:29:48;4.87;;;3.00;;
49488;SDS011;35382;51.484;11.476;2023-08-30T14:32:13;3.90;;;2.20;;
49488;SDS011;35382;51.484;11.476;2023-08-30T14:34:39;4.53;;;2.80;;
49488;SDS011;35382;51.484;11.476;2023-08-30T14:37:04;4.47;;;2.40;;
49488;SDS011;35382;51.484;11.476;2023-08-30T14:39:29;4.33;;;2.77;;
49488;SDS011;35382;51.484;11.476;2023-08-30T14:41:55;3.67;;;2.50;;
49488;SDS011;35382;51.484;11.476;2023-08-30T14:44:20;3.23;;;2.23;;
49488;SDS011;35382;51.484;11.476;2023-08-30T14:46:46;3.23;;;2.30;;
49488;SDS011;35382;51.484;11.476;2023-08-30T14:49:11;4.17;;;2.47;;
49488;SDS011;35382;51.484;11.476;2023-08-30T14:51:36;3.53;;;2.60;;
49488;SDS011;35382;51.484;11.476;2023-08-30T14:54:02;3.73;;;2.40;;
49488;SDS011;35382;51.484;11.476;2023-08-30T14:56:27;4.83;;;2.87;;
49488;SDS011;35382;51.484;11.476;2023-08-30T14:58:53;3.90;;;2.57;;